createdAt,value
2022-11-29T00:01:43.643Z,4.20
2022-11-29T00:04:40.708Z,4.10
2022-11-29T00:07:37.708Z,4.10
2022-11-29T00:10:38.163Z,4.00
2022-11-29T00:13:35.666Z,4.10
2022-11-29T00:16:32.875Z,4.00
2022-11-29T00:19:31.698Z,4.10
2022-11-29T00:22:29.331Z,4.10
2022-11-29T00:25:27.691Z,4.20
2022-11-29T00:28:24.524Z,4.10
2022-11-29T00:31:32.652Z,4.10
2022-11-29T00:34:29.551Z,4.20
2022-11-29T00:37:26.513Z,4.20
2022-11-29T00:40:23.363Z,4.20
2022-11-29T00:43:20.202Z,4.10
2022-11-29T00:46:17.297Z,4.10
2022-11-29T00:49:14.479Z,4.20
2022-11-29T00:52:11.309Z,4.10
2022-11-29T00:55:08.743Z,4.10
2022-11-29T00:58:06.242Z,4.10
2022-11-29T01:01:04.421Z,4.10
2022-11-29T01:04:02.320Z,4.10
2022-11-29T01:06:59.599Z,4.10
2022-11-29T01:09:56.443Z,4.10
2022-11-29T01:12:53.539Z,4.20
2022-11-29T01:15:57.617Z,4.10
2022-11-29T01:18:54.528Z,4.10
2022-11-29T01:21:51.343Z,4.10
2022-11-29T01:24:48.385Z,4.10
2022-11-29T01:27:45.648Z,4.00
2022-11-29T01:30:42.533Z,4.00
2022-11-29T01:33:40.052Z,4.00
2022-11-29T01:36:36.964Z,4.00
2022-11-29T01:39:33.817Z,4.00
2022-11-29T01:42:30.651Z,4.00
2022-11-29T01:45:27.536Z,4.00
2022-11-29T01:48:30.318Z,4.10
2022-11-29T01:51:29.519Z,4.10
2022-11-29T01:54:29.043Z,4.10
2022-11-29T01:57:27.093Z,4.20
2022-11-29T02:00:23.968Z,4.10
2022-11-29T02:03:20.821Z,4.10
2022-11-29T02:06:18.261Z,4.10
2022-11-29T02:09:24.261Z,4.10
2022-11-29T02:12:38.564Z,4.10
2022-11-29T02:15:50.384Z,4.10
2022-11-29T02:19:22.035Z,4.10
2022-11-29T02:22:53.350Z,4.10
2022-11-29T02:26:15.626Z,4.20
2022-11-29T02:29:45.440Z,4.10
2022-11-29T02:33:09.817Z,4.10
2022-11-29T02:36:43.006Z,4.10
2022-11-29T02:40:01.784Z,4.10
2022-11-29T02:43:40.752Z,4.00
2022-11-29T02:46:56.730Z,4.00
2022-11-29T02:50:18.665Z,4.00
2022-11-29T02:53:40.943Z,4.00
2022-11-29T02:56:46.663Z,4.10
2022-11-29T03:00:10.852Z,4.10
2022-11-29T03:03:26.847Z,4.10
2022-11-29T03:07:02.254Z,4.00
2022-11-29T03:10:28.411Z,4.00
2022-11-29T03:14:06.269Z,4.00
2022-11-29T03:17:42.048Z,4.00
2022-11-29T03:21:24.484Z,4.00
2022-11-29T03:24:35.616Z,4.10
2022-11-29T03:28:04.152Z,4.10
2022-11-29T03:31:14.231Z,4.10
2022-11-29T03:35:08.013Z,4.00
2022-11-29T03:38:42.743Z,4.00
2022-11-29T03:41:58.516Z,4.10
2022-11-29T03:45:13.862Z,4.00
2022-11-29T03:48:26.894Z,4.00
2022-11-29T03:51:38.051Z,4.00
2022-11-29T03:54:46.665Z,4.00
2022-11-29T03:58:14.835Z,4.10
2022-11-29T04:01:49.224Z,4.10
2022-11-29T04:05:32.835Z,4.10
2022-11-29T04:09:25.747Z,4.10
2022-11-29T04:12:41.006Z,4.10
2022-11-29T04:16:10.738Z,4.10
2022-11-29T04:20:04.301Z,4.10
2022-11-29T04:23:42.984Z,4.10
2022-11-29T04:27:04.979Z,4.00
2022-11-29T04:30:21.191Z,3.90
2022-11-29T04:33:58.880Z,4.00
2022-11-29T04:37:22.902Z,4.00
2022-11-29T04:40:26.951Z,4.00
2022-11-29T04:44:13.346Z,4.00
2022-11-29T04:47:46.368Z,4.00
2022-11-29T04:51:20.893Z,4.00
2022-11-29T04:54:52.596Z,4.00
2022-11-29T04:58:03.785Z,4.10
2022-11-29T05:01:50.486Z,4.10
2022-11-29T05:05:12.000Z,4.00
2022-11-29T05:08:53.953Z,4.00
2022-11-29T05:12:21.547Z,4.00
2022-11-29T05:15:40.144Z,4.00
2022-11-29T05:18:42.502Z,4.00
2022-11-29T05:22:03.925Z,4.00
2022-11-29T05:25:27.340Z,4.00
2022-11-29T05:28:43.895Z,4.00
2022-11-29T05:32:20.690Z,4.00
2022-11-29T05:35:29.408Z,4.00
2022-11-29T05:38:57.570Z,4.00
2022-11-29T05:42:37.475Z,4.00
2022-11-29T05:46:16.636Z,4.00
2022-11-29T05:49:50.448Z,4.00
2022-11-29T05:53:19.223Z,4.00
2022-11-29T05:56:32.511Z,4.00
2022-11-29T05:59:30.818Z,4.00
2022-11-29T06:02:27.627Z,4.10
2022-11-29T06:06:07.087Z,4.00
2022-11-29T06:09:37.804Z,4.00
2022-11-29T06:12:36.089Z,4.00
2022-11-29T06:15:51.320Z,4.00
2022-11-29T06:19:23.130Z,4.00
2022-11-29T06:22:58.134Z,4.00
2022-11-29T06:26:35.717Z,4.00
2022-11-29T06:30:10.852Z,4.00
2022-11-29T06:33:21.439Z,4.00
2022-11-29T06:36:59.086Z,3.90
2022-11-29T06:39:56.332Z,3.90
2022-11-29T06:42:53.161Z,4.00
2022-11-29T06:45:56.044Z,4.00
2022-11-29T06:49:22.187Z,3.90
2022-11-29T06:52:44.303Z,3.90
2022-11-29T06:55:59.417Z,4.00
2022-11-29T06:59:17.117Z,4.00
2022-11-29T07:02:20.000Z,4.00
2022-11-29T07:05:22.422Z,4.00
2022-11-29T07:08:24.687Z,4.00
2022-11-29T07:11:21.951Z,3.90
2022-11-29T07:14:19.095Z,3.90
2022-11-29T07:17:25.962Z,3.90
2022-11-29T07:21:03.928Z,4.00
2022-11-29T07:24:29.984Z,4.00
2022-11-29T07:28:12.876Z,4.00
2022-11-29T07:31:11.719Z,4.00
2022-11-29T07:34:44.271Z,4.00
2022-11-29T07:38:38.264Z,4.00
2022-11-29T07:42:08.186Z,3.90
2022-11-29T07:45:28.454Z,3.90
2022-11-29T07:48:26.849Z,4.10
2022-11-29T07:51:23.750Z,4.10
2022-11-29T07:54:22.256Z,4.00
2022-11-29T07:57:19.123Z,4.00
2022-11-29T08:00:18.382Z,4.00
2022-11-29T08:03:15.284Z,4.10
2022-11-29T08:06:12.138Z,4.10
2022-11-29T08:09:09.091Z,4.10
2022-11-29T08:12:06.183Z,4.10
2022-11-29T08:15:03.385Z,4.20
2022-11-29T08:18:01.313Z,4.20
2022-11-29T08:20:58.141Z,4.20
2022-11-29T08:23:55.016Z,4.30
2022-11-29T08:26:51.868Z,4.30
2022-11-29T08:29:48.692Z,4.30
2022-11-29T08:32:51.132Z,4.40
2022-11-29T08:35:48.329Z,4.50
2022-11-29T08:38:45.959Z,4.50
2022-11-29T08:41:42.943Z,4.50
2022-11-29T08:44:39.928Z,4.60
2022-11-29T08:47:38.255Z,4.60
2022-11-29T08:50:35.088Z,4.70
2022-11-29T08:53:41.666Z,4.70
2022-11-29T08:59:55.490Z,4.80
2022-11-29T09:02:52.326Z,4.90
2022-11-29T09:05:49.308Z,4.90
2022-11-29T09:08:46.205Z,5.00
2022-11-29T09:11:47.009Z,5.00
2022-11-29T09:14:46.349Z,5.00
2022-11-29T09:17:43.386Z,5.00
2022-11-29T09:20:44.133Z,5.00
2022-11-29T09:23:42.645Z,5.10
2022-11-29T09:26:40.795Z,5.10
2022-11-29T09:29:37.859Z,5.10
2022-11-29T09:32:35.532Z,5.10
2022-11-29T09:35:34.610Z,5.00
2022-11-29T09:38:31.449Z,5.00
2022-11-29T09:42:11.895Z,5.00
2022-11-29T09:45:19.814Z,5.10
2022-11-29T09:48:55.821Z,5.00
2022-11-29T09:52:10.807Z,5.00
2022-11-29T09:55:23.702Z,5.10
2022-11-29T09:58:26.290Z,5.10
2022-11-29T10:01:38.141Z,5.10
2022-11-29T10:04:40.802Z,5.10
2022-11-29T10:07:56.812Z,5.10
2022-11-29T10:11:36.737Z,5.10
2022-11-29T10:15:00.269Z,5.30
2022-11-29T10:19:04.508Z,5.30
2022-11-29T10:22:10.284Z,5.20
2022-11-29T10:25:10.457Z,5.20
2022-11-29T10:28:26.372Z,5.30
2022-11-29T10:31:27.483Z,5.20
2022-11-29T10:34:26.619Z,5.20
2022-11-29T10:37:24.617Z,5.30
2022-11-29T10:40:32.334Z,5.30
2022-11-29T10:43:29.221Z,5.20
2022-11-29T10:46:32.497Z,5.30
2022-11-29T10:49:35.163Z,5.30
2022-11-29T10:52:33.728Z,5.40
2022-11-29T10:56:22.405Z,5.30
2022-11-29T10:59:31.037Z,5.30
2022-11-29T11:02:28.383Z,5.20
2022-11-29T11:05:27.068Z,5.20
2022-11-29T11:08:26.434Z,5.30
2022-11-29T11:11:33.182Z,5.30
2022-11-29T11:14:36.275Z,5.30
2022-11-29T11:17:33.767Z,5.20
2022-11-29T11:20:34.846Z,5.20
2022-11-29T11:23:38.661Z,5.20
2022-11-29T11:26:44.970Z,5.30
2022-11-29T11:29:44.972Z,5.30
2022-11-29T11:33:26.516Z,5.30
2022-11-29T11:36:27.349Z,5.30
2022-11-29T11:39:24.260Z,5.40
2022-11-29T11:42:37.343Z,5.50
2022-11-29T11:45:38.562Z,5.40
2022-11-29T11:48:35.934Z,5.40
2022-11-29T11:51:33.937Z,5.40
2022-11-29T11:54:31.726Z,5.30
2022-11-29T11:57:30.071Z,5.30
2022-11-29T12:01:09.644Z,5.20
2022-11-29T12:04:22.752Z,5.20
2022-11-29T12:08:05.674Z,5.10
2022-11-29T12:10:53.766Z,5.20
2022-11-29T12:13:58.117Z,5.10
2022-11-29T12:17:22.507Z,5.20
2022-11-29T12:21:18.454Z,5.20
2022-11-29T12:24:40.347Z,5.20
2022-11-29T12:27:37.290Z,5.10
2022-11-29T12:30:34.754Z,5.10
2022-11-29T12:34:27.543Z,5.10
2022-11-29T12:37:42.357Z,5.10
2022-11-29T12:40:58.235Z,5.00
2022-11-29T12:44:22.296Z,5.10
2022-11-29T12:47:50.378Z,5.20
2022-11-29T12:51:09.184Z,5.20
2022-11-29T12:54:55.850Z,5.20
2022-11-29T12:58:07.391Z,5.20
2022-11-29T13:01:31.588Z,5.20
2022-11-29T13:04:59.765Z,5.10
2022-11-29T13:08:16.534Z,5.10
2022-11-29T13:11:37.583Z,5.10
2022-11-29T13:14:58.617Z,5.00
2022-11-29T13:18:22.732Z,5.00
2022-11-29T13:21:31.903Z,5.00
2022-11-29T13:24:42.938Z,5.10
2022-11-29T13:28:03.457Z,5.10
2022-11-29T13:31:12.586Z,5.00
2022-11-29T13:34:46.378Z,5.00
2022-11-29T13:38:18.544Z,4.90
2022-11-29T13:42:10.762Z,4.90
2022-11-29T13:45:39.315Z,5.10
2022-11-29T13:48:50.154Z,5.00
2022-11-29T13:51:47.130Z,5.00
2022-11-29T13:54:44.228Z,5.00
2022-11-29T13:58:20.944Z,5.00
2022-11-29T14:01:17.997Z,5.10
2022-11-29T14:04:39.409Z,5.20
2022-11-29T14:08:48.067Z,5.10
2022-11-29T14:12:24.498Z,5.00
2022-11-29T14:15:31.748Z,5.00
2022-11-29T14:18:37.085Z,5.00
2022-11-29T14:22:02.919Z,5.00
2022-11-29T14:25:08.324Z,5.10
2022-11-29T14:28:18.538Z,5.10
2022-11-29T14:31:50.129Z,5.10
2022-11-29T14:35:04.805Z,5.10
2022-11-29T14:38:33.905Z,5.10
2022-11-29T14:42:19.873Z,5.00
2022-11-29T14:45:33.442Z,5.10
2022-11-29T14:48:32.965Z,5.10
2022-11-29T14:51:34.253Z,5.00
2022-11-29T14:54:32.519Z,5.00
2022-11-29T14:57:47.177Z,4.90
2022-11-29T15:01:01.777Z,5.00
2022-11-29T15:04:05.506Z,5.00
2022-11-29T15:07:04.374Z,4.90
2022-11-29T15:10:04.997Z,4.90
2022-11-29T15:13:03.950Z,5.00
2022-11-29T15:16:49.687Z,5.00
2022-11-29T15:20:19.526Z,4.90
2022-11-29T15:23:21.429Z,4.90
2022-11-29T15:26:20.969Z,5.00
2022-11-29T15:29:21.589Z,4.90
2022-11-29T15:32:32.497Z,4.90
2022-11-29T15:35:30.173Z,4.90
2022-11-29T15:38:27.016Z,4.80
2022-11-29T15:41:28.966Z,4.80
2022-11-29T15:44:25.944Z,4.80
2022-11-29T15:47:26.643Z,4.70
2022-11-29T15:50:33.048Z,4.80
2022-11-29T15:53:44.050Z,4.80
2022-11-29T15:56:48.055Z,4.80
2022-11-29T16:00:00.119Z,4.80
2022-11-29T16:03:03.006Z,4.80
2022-11-29T16:06:22.741Z,4.80
2022-11-29T16:09:36.258Z,4.80
2022-11-29T16:12:33.254Z,4.80
2022-11-29T16:15:40.282Z,4.80
2022-11-29T16:18:40.989Z,4.80
2022-11-29T16:21:37.828Z,4.80
2022-11-29T16:24:36.655Z,4.80
2022-11-29T16:27:35.318Z,4.70
2022-11-29T16:30:34.174Z,4.70
2022-11-29T16:33:31.673Z,4.70
2022-11-29T16:36:28.514Z,4.70
2022-11-29T16:39:26.122Z,4.70
2022-11-29T16:42:29.973Z,4.70
2022-11-29T16:45:38.518Z,4.70
2022-11-29T16:48:38.336Z,4.70
2022-11-29T16:51:45.778Z,4.70
2022-11-29T16:54:42.794Z,4.70
2022-11-29T16:57:40.250Z,4.70
2022-11-29T17:00:37.212Z,4.70
2022-11-29T17:03:34.487Z,4.80
2022-11-29T17:06:31.582Z,4.70
2022-11-29T17:09:31.665Z,4.80
2022-11-29T17:12:28.583Z,4.80
2022-11-29T17:15:25.483Z,4.80
2022-11-29T17:18:22.381Z,4.80
2022-11-29T17:21:27.866Z,4.70
2022-11-29T17:24:25.430Z,4.80
2022-11-29T17:27:22.258Z,4.80
2022-11-29T17:30:19.170Z,4.80
2022-11-29T17:33:16.109Z,4.80
2022-11-29T17:36:16.657Z,4.70
2022-11-29T17:39:15.605Z,4.70
2022-11-29T17:42:12.583Z,4.60
2022-11-29T17:45:10.040Z,4.60
2022-11-29T17:48:07.015Z,4.70
2022-11-29T17:51:13.536Z,4.60
2022-11-29T17:54:22.645Z,4.60
2022-11-29T17:57:19.833Z,4.60
2022-11-29T18:00:17.935Z,4.60
2022-11-29T18:03:14.753Z,4.70
2022-11-29T18:06:20.313Z,4.70
2022-11-29T18:09:19.352Z,4.80
2022-11-29T18:12:16.399Z,4.70
2022-11-29T18:15:13.239Z,4.80
2022-11-29T18:18:10.687Z,4.70
2022-11-29T18:21:09.985Z,4.60
2022-11-29T18:24:08.042Z,4.70
2022-11-29T18:27:04.914Z,4.70
2022-11-29T18:30:01.734Z,4.70
2022-11-29T18:32:59.719Z,4.60
2022-11-29T18:36:05.238Z,4.60
2022-11-29T18:39:09.634Z,4.60
2022-11-29T18:42:06.456Z,4.70
2022-11-29T18:45:03.540Z,4.70
2022-11-29T18:48:00.381Z,4.70
2022-11-29T18:51:06.212Z,4.80
2022-11-29T18:54:03.696Z,4.70
2022-11-29T18:57:00.598Z,4.60
2022-11-29T18:59:57.470Z,4.60
2022-11-29T19:02:54.466Z,4.70
2022-11-29T19:05:53.948Z,4.70
2022-11-29T19:08:52.726Z,4.70
2022-11-29T19:11:50.668Z,4.60
2022-11-29T19:14:50.057Z,4.60
2022-11-29T19:17:47.122Z,4.60
2022-11-29T19:20:43.967Z,4.60
2022-11-29T19:23:42.681Z,4.70
2022-11-29T19:26:40.278Z,4.70
2022-11-29T19:29:39.772Z,4.70
2022-11-29T19:32:36.794Z,4.60
2022-11-29T19:35:34.820Z,4.50
2022-11-29T19:38:31.766Z,4.60
2022-11-29T19:41:34.948Z,4.60
2022-11-29T19:44:48.259Z,4.60
2022-11-29T19:47:49.420Z,4.70
2022-11-29T19:50:46.266Z,4.60
2022-11-29T19:53:43.393Z,4.50
2022-11-29T19:56:40.402Z,4.60
2022-11-29T19:59:37.262Z,4.70
2022-11-29T20:02:34.188Z,4.70
2022-11-29T20:05:31.070Z,4.80
2022-11-29T20:08:28.773Z,4.70
2022-11-29T20:11:26.433Z,4.60
2022-11-29T20:14:23.327Z,4.60
2022-11-29T20:17:20.156Z,4.50
2022-11-29T20:20:17.140Z,4.50
2022-11-29T20:23:14.015Z,4.60
2022-11-29T20:26:20.187Z,4.60
2022-11-29T20:29:17.718Z,4.70
2022-11-29T20:32:14.691Z,4.70
2022-11-29T20:35:12.287Z,4.70
2022-11-29T20:38:37.406Z,4.70
2022-11-29T20:41:53.201Z,4.60
2022-11-29T20:44:57.258Z,4.60
2022-11-29T20:48:11.155Z,4.80
2022-11-29T20:51:10.348Z,4.80
2022-11-29T20:54:09.563Z,4.80
2022-11-29T20:57:06.377Z,4.80
2022-11-29T21:00:03.688Z,4.70
2022-11-29T21:03:00.649Z,4.60
2022-11-29T21:06:00.858Z,4.60
2022-11-29T21:08:57.693Z,4.50
2022-11-29T21:11:54.915Z,4.50
2022-11-29T21:14:52.354Z,4.60
2022-11-29T21:17:49.805Z,4.70
2022-11-29T21:21:11.799Z,4.70
2022-11-29T21:24:36.015Z,4.70
2022-11-29T21:27:34.810Z,4.60
2022-11-29T21:30:31.960Z,4.60
2022-11-29T21:33:29.875Z,4.70
2022-11-29T21:36:27.013Z,4.70
2022-11-29T21:39:32.555Z,4.60
2022-11-29T21:42:29.386Z,4.60
2022-11-29T21:45:26.240Z,4.60
2022-11-29T21:48:35.310Z,4.60
2022-11-29T21:51:32.146Z,4.70
2022-11-29T21:54:29.574Z,4.70
2022-11-29T21:57:26.426Z,4.70
2022-11-29T22:00:23.378Z,4.60
2022-11-29T22:03:20.750Z,4.60
2022-11-29T22:06:20.325Z,4.60
2022-11-29T22:09:17.207Z,4.70
2022-11-29T22:12:32.928Z,4.80
2022-11-29T22:15:32.595Z,4.80
2022-11-29T22:18:29.466Z,4.70
2022-11-29T22:21:26.310Z,4.80
2022-11-29T22:24:26.487Z,4.80
2022-11-29T22:27:23.337Z,4.70
2022-11-29T22:30:20.375Z,4.70
2022-11-29T22:33:17.221Z,4.70
2022-11-29T22:36:14.070Z,4.60
2022-11-29T22:39:11.043Z,4.70
2022-11-29T22:42:07.862Z,4.80
2022-11-29T22:45:05.079Z,4.80
2022-11-29T22:48:02.024Z,4.80
2022-11-29T22:51:12.627Z,4.70
2022-11-29T22:54:11.798Z,4.60
2022-11-29T22:57:08.727Z,4.60
2022-11-29T23:00:06.708Z,4.70
2022-11-29T23:03:03.552Z,4.70
2022-11-29T23:06:06.913Z,4.60
2022-11-29T23:09:15.076Z,4.70
2022-11-29T23:12:11.911Z,4.70
2022-11-29T23:15:09.218Z,4.60
2022-11-29T23:18:06.114Z,4.60
2022-11-29T23:21:10.358Z,4.60
2022-11-29T23:24:07.785Z,4.60
2022-11-29T23:27:04.914Z,4.60
2022-11-29T23:30:01.787Z,4.70
2022-11-29T23:32:58.621Z,4.60
2022-11-29T23:36:05.157Z,4.60
2022-11-29T23:39:02.024Z,4.60
2022-11-29T23:41:58.863Z,4.60
2022-11-29T23:44:55.720Z,4.70
2022-11-29T23:47:52.568Z,4.70
2022-11-29T23:50:49.482Z,4.60
2022-11-29T23:53:51.267Z,4.60
2022-11-29T23:56:48.179Z,4.60
2022-11-29T23:59:45.001Z,4.60
